sensor_id;sensor_type;location;lat;lon;timestamp;P1;durP1;ratioP1;P2;durP2;ratioP2
75937;SDS011;64615;32.062;34.834;2023-02-01T00:45:45;5.85;;;1.63;;
75937;SDS011;64615;32.062;34.834;2023-02-01T00:48:11;8.85;;;1.77;;
75937;SDS011;64615;32.062;34.834;2023-02-01T00:50:40;6.90;;;1.55;;
75937;SDS011;64615;32.062;34.834;2023-02-01T00:53:07;6.88;;;1.73;;
75937;SDS011;64615;32.062;34.834;2023-02-01T00:55:34;7.28;;;1.73;;
75937;SDS011;64615;32.062;34.834;2023-02-01T00:58:00;10.98;;;1.60;;
75937;SDS011;64615;32.062;34.834;2023-02-01T01:00:25;6.00;;;1.65;;
75937;SDS011;64615;32.062;34.834;2023-02-01T01:02:51;8.57;;;2.00;;
75937;SDS011;64615;32.062;34.834;2023-02-01T01:05:17;10.45;;;2.00;;
75937;SDS011;64615;32.062;34.834;2023-02-01T02:49:41;8.02;;;2.00;;
75937;SDS011;64615;32.062;34.834;2023-02-01T02:52:36;10.48;;;2.03;;
75937;SDS011;64615;32.062;34.834;2023-02-01T02:55:25;7.25;;;2.08;;
75937;SDS011;64615;32.062;34.834;2023-02-01T02:57:54;8.57;;;1.98;;
75937;SDS011;64615;32.062;34.834;2023-02-01T03:00:41;8.40;;;1.90;;
75937;SDS011;64615;32.062;34.834;2023-02-01T03:03:27;8.68;;;2.20;;
75937;SDS011;64615;32.062;34.834;2023-02-01T03:06:15;8.25;;;1.92;;
75937;SDS011;64615;32.062;34.834;2023-02-01T03:08:43;9.57;;;1.88;;
75937;SDS011;64615;32.062;34.834;2023-02-01T04:35:28;7.55;;;2.05;;
75937;SDS011;64615;32.062;34.834;2023-02-01T04:37:54;19.48;;;3.33;;
75937;SDS011;64615;32.062;34.834;2023-02-01T04:40:19;24.08;;;3.20;;
75937;SDS011;64615;32.062;34.834;2023-02-01T04:42:45;17.42;;;3.40;;
75937;SDS011;64615;32.062;34.834;2023-02-01T04:45:11;27.38;;;3.33;;
75937;SDS011;64615;32.062;34.834;2023-02-01T04:47:36;18.50;;;2.90;;
75937;SDS011;64615;32.062;34.834;2023-02-01T04:50:02;17.50;;;3.45;;
75937;SDS011;64615;32.062;34.834;2023-02-01T04:52:28;17.70;;;2.90;;
75937;SDS011;64615;32.062;34.834;2023-02-01T04:54:54;19.92;;;2.85;;
75937;SDS011;64615;32.062;34.834;2023-02-01T04:57:22;20.83;;;2.53;;
75937;SDS011;64615;32.062;34.834;2023-02-01T05:39:58;14.77;;;2.42;;
75937;SDS011;64615;32.062;34.834;2023-02-01T05:42:24;18.52;;;2.80;;
75937;SDS011;64615;32.062;34.834;2023-02-01T05:44:49;17.10;;;2.70;;
75937;SDS011;64615;32.062;34.834;2023-02-01T05:47:15;17.20;;;3.05;;
75937;SDS011;64615;32.062;34.834;2023-02-01T05:49:41;32.05;;;3.45;;
75937;SDS011;64615;32.062;34.834;2023-02-01T05:52:06;30.48;;;3.67;;
75937;SDS011;64615;32.062;34.834;2023-02-01T05:54:32;21.63;;;3.53;;
75937;SDS011;64615;32.062;34.834;2023-02-01T05:56:57;18.00;;;3.05;;
75937;SDS011;64615;32.062;34.834;2023-02-01T05:59:23;13.57;;;2.58;;
75937;SDS011;64615;32.062;34.834;2023-02-01T06:01:49;20.77;;;2.90;;
75937;SDS011;64615;32.062;34.834;2023-02-01T06:04:15;12.48;;;2.72;;
75937;SDS011;64615;32.062;34.834;2023-02-01T06:06:40;16.98;;;3.08;;
75937;SDS011;64615;32.062;34.834;2023-02-01T06:09:06;16.20;;;2.75;;
75937;SDS011;64615;32.062;34.834;2023-02-01T06:11:32;15.23;;;2.90;;
75937;SDS011;64615;32.062;34.834;2023-02-01T06:13:58;16.50;;;2.75;;
75937;SDS011;64615;32.062;34.834;2023-02-01T06:16:23;14.43;;;3.08;;
75937;SDS011;64615;32.062;34.834;2023-02-01T06:18:49;17.90;;;2.97;;
75937;SDS011;64615;32.062;34.834;2023-02-01T06:21:15;11.98;;;2.42;;
75937;SDS011;64615;32.062;34.834;2023-02-01T06:23:49;22.80;;;2.78;;
75937;SDS011;64615;32.062;34.834;2023-02-01T06:26:15;16.05;;;2.88;;
75937;SDS011;64615;32.062;34.834;2023-02-01T06:28:43;18.73;;;2.67;;
75937;SDS011;64615;32.062;34.834;2023-02-01T07:03:01;25.25;;;4.38;;
75937;SDS011;64615;32.062;34.834;2023-02-01T07:05:27;27.35;;;3.90;;
75937;SDS011;64615;32.062;34.834;2023-02-01T07:07:52;22.65;;;3.75;;
75937;SDS011;64615;32.062;34.834;2023-02-01T07:10:18;25.85;;;3.75;;
75937;SDS011;64615;32.062;34.834;2023-02-01T07:12:44;26.85;;;4.35;;
75937;SDS011;64615;32.062;34.834;2023-02-01T07:15:09;20.60;;;4.22;;
75937;SDS011;64615;32.062;34.834;2023-02-01T07:17:35;22.02;;;3.85;;
75937;SDS011;64615;32.062;34.834;2023-02-01T07:20:01;21.45;;;3.80;;
75937;SDS011;64615;32.062;34.834;2023-02-01T07:22:27;29.98;;;4.22;;
75937;SDS011;64615;32.062;34.834;2023-02-01T07:24:52;24.30;;;4.38;;
75937;SDS011;64615;32.062;34.834;2023-02-01T07:27:18;19.02;;;3.58;;
75937;SDS011;64615;32.062;34.834;2023-02-01T07:29:45;22.90;;;4.35;;
75937;SDS011;64615;32.062;34.834;2023-02-01T07:32:10;27.00;;;4.10;;
75937;SDS011;64615;32.062;34.834;2023-02-01T07:34:36;16.48;;;3.92;;
75937;SDS011;64615;32.062;34.834;2023-02-01T07:37:02;20.63;;;4.20;;
75937;SDS011;64615;32.062;34.834;2023-02-01T07:39:28;25.25;;;4.40;;
75937;SDS011;64615;32.062;34.834;2023-02-01T07:41:53;28.20;;;4.20;;
75937;SDS011;64615;32.062;34.834;2023-02-01T08:08:26;23.90;;;4.80;;
75937;SDS011;64615;32.062;34.834;2023-02-01T08:10:56;22.50;;;4.93;;
75937;SDS011;64615;32.062;34.834;2023-02-01T08:13:23;19.15;;;4.43;;
75937;SDS011;64615;32.062;34.834;2023-02-01T08:15:48;28.10;;;5.28;;
75937;SDS011;64615;32.062;34.834;2023-02-01T08:18:14;34.88;;;5.40;;
75937;SDS011;64615;32.062;34.834;2023-02-01T08:20:43;39.40;;;5.68;;
75937;SDS011;64615;32.062;34.834;2023-02-01T08:23:11;33.40;;;5.60;;
75937;SDS011;64615;32.062;34.834;2023-02-01T08:25:37;31.13;;;5.40;;
75937;SDS011;64615;32.062;34.834;2023-02-01T08:28:04;32.35;;;5.30;;
75937;SDS011;64615;32.062;34.834;2023-02-01T08:30:30;29.13;;;5.20;;
75937;SDS011;64615;32.062;34.834;2023-02-01T08:32:57;34.28;;;5.45;;
75937;SDS011;64615;32.062;34.834;2023-02-01T08:35:23;41.47;;;5.50;;
75937;SDS011;64615;32.062;34.834;2023-02-01T08:37:51;35.17;;;5.35;;
75937;SDS011;64615;32.062;34.834;2023-02-01T08:40:17;30.38;;;4.88;;
75937;SDS011;64615;32.062;34.834;2023-02-01T08:42:44;38.92;;;5.80;;
75937;SDS011;64615;32.062;34.834;2023-02-01T08:45:15;35.50;;;5.00;;
75937;SDS011;64615;32.062;34.834;2023-02-01T08:47:42;40.92;;;4.45;;
75937;SDS011;64615;32.062;34.834;2023-02-01T08:50:07;42.08;;;5.65;;
75937;SDS011;64615;32.062;34.834;2023-02-01T08:52:34;40.08;;;5.28;;
75937;SDS011;64615;32.062;34.834;2023-02-01T08:54:59;34.70;;;4.80;;
75937;SDS011;64615;32.062;34.834;2023-02-01T08:57:25;41.67;;;5.35;;
75937;SDS011;64615;32.062;34.834;2023-02-01T08:59:51;34.72;;;4.78;;
75937;SDS011;64615;32.062;34.834;2023-02-01T09:02:17;32.83;;;5.10;;
75937;SDS011;64615;32.062;34.834;2023-02-01T09:04:43;36.60;;;5.65;;
75937;SDS011;64615;32.062;34.834;2023-02-01T09:07:09;35.28;;;5.97;;
75937;SDS011;64615;32.062;34.834;2023-02-01T09:09:35;33.25;;;4.85;;
75937;SDS011;64615;32.062;34.834;2023-02-01T09:12:02;31.95;;;4.78;;
75937;SDS011;64615;32.062;34.834;2023-02-01T09:14:28;30.30;;;4.90;;
75937;SDS011;64615;32.062;34.834;2023-02-01T09:16:54;28.42;;;4.28;;
75937;SDS011;64615;32.062;34.834;2023-02-01T09:19:20;24.48;;;4.60;;
75937;SDS011;64615;32.062;34.834;2023-02-01T09:21:45;24.90;;;3.80;;
75937;SDS011;64615;32.062;34.834;2023-02-01T09:24:11;20.27;;;3.67;;
75937;SDS011;64615;32.062;34.834;2023-02-01T09:26:37;29.45;;;4.20;;
75937;SDS011;64615;32.062;34.834;2023-02-01T09:29:03;20.92;;;3.80;;
75937;SDS011;64615;32.062;34.834;2023-02-01T09:31:31;15.73;;;3.30;;
75937;SDS011;64615;32.062;34.834;2023-02-01T09:33:57;19.02;;;3.38;;
75937;SDS011;64615;32.062;34.834;2023-02-01T09:36:23;18.38;;;3.10;;
75937;SDS011;64615;32.062;34.834;2023-02-01T09:38:49;20.85;;;3.65;;
75937;SDS011;64615;32.062;34.834;2023-02-01T09:49:15;18.52;;;3.28;;
75937;SDS011;64615;32.062;34.834;2023-02-01T09:51:46;20.60;;;3.00;;
75937;SDS011;64615;32.062;34.834;2023-02-01T09:54:25;18.00;;;3.38;;
75937;SDS011;64615;32.062;34.834;2023-02-01T09:57:06;20.42;;;3.22;;
75937;SDS011;64615;32.062;34.834;2023-02-01T09:59:40;16.80;;;2.75;;
75937;SDS011;64615;32.062;34.834;2023-02-01T10:02:15;15.88;;;3.30;;
75937;SDS011;64615;32.062;34.834;2023-02-01T10:04:44;16.10;;;2.80;;
75937;SDS011;64615;32.062;34.834;2023-02-01T10:47:47;18.15;;;3.10;;
75937;SDS011;64615;32.062;34.834;2023-02-01T10:50:49;18.60;;;3.08;;
75937;SDS011;64615;32.062;34.834;2023-02-01T10:53:50;17.00;;;3.17;;
75937;SDS011;64615;32.062;34.834;2023-02-01T10:56:49;21.55;;;3.55;;
75937;SDS011;64615;32.062;34.834;2023-02-01T10:59:39;18.80;;;3.45;;
75937;SDS011;64615;32.062;34.834;2023-02-01T11:02:34;15.82;;;2.88;;
75937;SDS011;64615;32.062;34.834;2023-02-01T11:05:26;17.65;;;3.30;;
75937;SDS011;64615;32.062;34.834;2023-02-01T11:08:17;19.48;;;3.22;;
75937;SDS011;64615;32.062;34.834;2023-02-01T11:11:09;16.88;;;3.53;;
75937;SDS011;64615;32.062;34.834;2023-02-01T11:14:00;19.95;;;3.42;;
75937;SDS011;64615;32.062;34.834;2023-02-01T11:17:03;18.02;;;3.22;;
75937;SDS011;64615;32.062;34.834;2023-02-01T11:20:11;18.98;;;2.85;;
75937;SDS011;64615;32.062;34.834;2023-02-01T11:23:05;18.45;;;3.40;;
75937;SDS011;64615;32.062;34.834;2023-02-01T11:26:10;26.88;;;4.00;;
75937;SDS011;64615;32.062;34.834;2023-02-01T11:29:11;22.00;;;3.72;;
75937;SDS011;64615;32.062;34.834;2023-02-01T11:32:05;18.63;;;3.65;;
75937;SDS011;64615;32.062;34.834;2023-02-01T11:35:03;24.55;;;3.15;;
75937;SDS011;64615;32.062;34.834;2023-02-01T11:37:57;30.67;;;3.83;;
75937;SDS011;64615;32.062;34.834;2023-02-01T11:40:48;23.08;;;3.28;;
75937;SDS011;64615;32.062;34.834;2023-02-01T11:43:22;16.55;;;2.97;;
75937;SDS011;64615;32.062;34.834;2023-02-01T13:16:32;36.75;;;7.53;;
75937;SDS011;64615;32.062;34.834;2023-02-01T13:19:30;41.35;;;7.38;;
75937;SDS011;64615;32.062;34.834;2023-02-01T13:50:49;51.58;;;10.85;;
75937;SDS011;64615;32.062;34.834;2023-02-01T13:53:18;59.83;;;11.18;;
75937;SDS011;64615;32.062;34.834;2023-02-01T13:56:11;56.30;;;10.95;;
75937;SDS011;64615;32.062;34.834;2023-02-01T13:58:38;56.35;;;10.40;;
75937;SDS011;64615;32.062;34.834;2023-02-01T14:06:15;57.78;;;10.48;;
75937;SDS011;64615;32.062;34.834;2023-02-01T14:11:38;48.60;;;9.13;;
75937;SDS011;64615;32.062;34.834;2023-02-01T14:16:41;43.92;;;10.30;;
75937;SDS011;64615;32.062;34.834;2023-02-01T14:19:08;45.17;;;9.45;;
75937;SDS011;64615;32.062;34.834;2023-02-01T14:21:57;42.15;;;9.10;;
75937;SDS011;64615;32.062;34.834;2023-02-01T14:24:27;41.15;;;8.93;;
75937;SDS011;64615;32.062;34.834;2023-02-01T15:29:32;147.25;;;45.08;;
75937;SDS011;64615;32.062;34.834;2023-02-01T15:31:59;122.82;;;39.25;;
75937;SDS011;64615;32.062;34.834;2023-02-01T15:34:43;110.75;;;38.38;;
75937;SDS011;64615;32.062;34.834;2023-02-01T15:37:14;95.85;;;28.90;;
75937;SDS011;64615;32.062;34.834;2023-02-01T15:42:36;80.38;;;26.13;;
75937;SDS011;64615;32.062;34.834;2023-02-01T15:45:16;65.78;;;23.23;;
75937;SDS011;64615;32.062;34.834;2023-02-01T15:47:46;78.00;;;23.30;;
75937;SDS011;64615;32.062;34.834;2023-02-01T15:50:15;65.50;;;22.33;;
75937;SDS011;64615;32.062;34.834;2023-02-01T15:52:42;59.38;;;20.38;;
75937;SDS011;64615;32.062;34.834;2023-02-01T15:55:08;57.15;;;16.80;;
75937;SDS011;64615;32.062;34.834;2023-02-01T15:57:42;59.40;;;16.42;;
75937;SDS011;64615;32.062;34.834;2023-02-01T16:02:54;40.33;;;12.43;;
75937;SDS011;64615;32.062;34.834;2023-02-01T16:05:27;49.33;;;12.77;;
75937;SDS011;64615;32.062;34.834;2023-02-01T16:08:00;40.08;;;11.05;;
75937;SDS011;64615;32.062;34.834;2023-02-01T16:10:29;40.50;;;9.48;;
75937;SDS011;64615;32.062;34.834;2023-02-01T16:12:56;38.03;;;9.20;;
75937;SDS011;64615;32.062;34.834;2023-02-01T16:15:28;33.88;;;8.98;;
75937;SDS011;64615;32.062;34.834;2023-02-01T16:17:55;36.85;;;9.10;;
75937;SDS011;64615;32.062;34.834;2023-02-01T16:20:20;39.50;;;8.25;;
75937;SDS011;64615;32.062;34.834;2023-02-01T18:08:43;19.75;;;3.50;;
75937;SDS011;64615;32.062;34.834;2023-02-01T18:11:16;17.88;;;2.78;;
75937;SDS011;64615;32.062;34.834;2023-02-01T18:13:49;16.85;;;3.05;;
75937;SDS011;64615;32.062;34.834;2023-02-01T18:16:21;11.18;;;3.42;;
75937;SDS011;64615;32.062;34.834;2023-02-01T18:47:26;13.00;;;2.85;;
75937;SDS011;64615;32.062;34.834;2023-02-01T18:49:51;12.35;;;3.10;;
75937;SDS011;64615;32.062;34.834;2023-02-01T18:52:17;11.98;;;3.08;;
75937;SDS011;64615;32.062;34.834;2023-02-01T18:54:43;11.05;;;2.58;;
75937;SDS011;64615;32.062;34.834;2023-02-01T18:57:08;11.48;;;2.85;;
75937;SDS011;64615;32.062;34.834;2023-02-01T18:59:36;9.90;;;2.30;;
75937;SDS011;64615;32.062;34.834;2023-02-01T19:02:02;9.98;;;2.58;;
75937;SDS011;64615;32.062;34.834;2023-02-01T19:04:28;12.23;;;2.50;;
75937;SDS011;64615;32.062;34.834;2023-02-01T19:06:54;8.80;;;2.88;;
75937;SDS011;64615;32.062;34.834;2023-02-01T19:09:20;9.48;;;2.47;;
75937;SDS011;64615;32.062;34.834;2023-02-01T19:11:45;13.48;;;2.60;;
75937;SDS011;64615;32.062;34.834;2023-02-01T19:14:11;10.48;;;2.55;;
75937;SDS011;64615;32.062;34.834;2023-02-01T19:16:37;11.05;;;2.30;;
75937;SDS011;64615;32.062;34.834;2023-02-01T19:19:03;10.93;;;2.40;;
75937;SDS011;64615;32.062;34.834;2023-02-01T19:21:29;11.27;;;2.70;;
75937;SDS011;64615;32.062;34.834;2023-02-01T19:23:55;13.77;;;2.60;;
75937;SDS011;64615;32.062;34.834;2023-02-01T19:26:21;11.13;;;2.20;;
75937;SDS011;64615;32.062;34.834;2023-02-01T19:28:46;10.82;;;2.20;;
75937;SDS011;64615;32.062;34.834;2023-02-01T19:31:13;9.00;;;2.40;;
75937;SDS011;64615;32.062;34.834;2023-02-01T19:33:40;9.02;;;2.38;;
75937;SDS011;64615;32.062;34.834;2023-02-01T19:36:05;8.57;;;2.17;;
75937;SDS011;64615;32.062;34.834;2023-02-01T20:48:34;14.45;;;2.80;;
75937;SDS011;64615;32.062;34.834;2023-02-01T20:51:00;17.73;;;2.88;;
75937;SDS011;64615;32.062;34.834;2023-02-01T20:53:26;10.48;;;2.45;;
75937;SDS011;64615;32.062;34.834;2023-02-01T20:55:53;14.98;;;2.90;;
75937;SDS011;64615;32.062;34.834;2023-02-01T20:58:20;9.60;;;2.38;;
75937;SDS011;64615;32.062;34.834;2023-02-01T21:00:46;15.55;;;2.67;;
75937;SDS011;64615;32.062;34.834;2023-02-01T21:03:12;10.27;;;2.60;;
75937;SDS011;64615;32.062;34.834;2023-02-01T21:05:39;9.90;;;2.58;;
75937;SDS011;64615;32.062;34.834;2023-02-01T21:08:10;10.90;;;2.90;;
75937;SDS011;64615;32.062;34.834;2023-02-01T21:10:37;12.02;;;2.53;;
75937;SDS011;64615;32.062;34.834;2023-02-01T21:13:03;9.65;;;2.63;;
75937;SDS011;64615;32.062;34.834;2023-02-01T21:15:30;8.50;;;2.20;;
75937;SDS011;64615;32.062;34.834;2023-02-01T22:38:31;9.25;;;2.47;;
75937;SDS011;64615;32.062;34.834;2023-02-01T22:40:58;7.75;;;2.08;;
75937;SDS011;64615;32.062;34.834;2023-02-01T22:43:26;9.73;;;2.75;;
75937;SDS011;64615;32.062;34.834;2023-02-01T22:45:52;8.10;;;2.65;;
75937;SDS011;64615;32.062;34.834;2023-02-01T22:48:18;10.77;;;2.63;;
75937;SDS011;64615;32.062;34.834;2023-02-01T22:50:44;8.02;;;2.17;;
75937;SDS011;64615;32.062;34.834;2023-02-01T22:53:10;12.77;;;2.80;;
75937;SDS011;64615;32.062;34.834;2023-02-01T22:55:36;8.82;;;2.33;;
75937;SDS011;64615;32.062;34.834;2023-02-01T22:58:05;10.13;;;2.38;;
75937;SDS011;64615;32.062;34.834;2023-02-01T23:00:32;8.23;;;2.33;;
75937;SDS011;64615;32.062;34.834;2023-02-01T23:02:58;7.65;;;2.08;;
